createdAt,value
2022-09-21T00:01:26.188Z,8.13
2022-09-21T00:03:55.346Z,5.73
2022-09-21T00:06:23.692Z,10.10
2022-09-21T00:08:51.283Z,5.07
2022-09-21T00:11:27.541Z,4.17
2022-09-21T00:13:57.734Z,4.87
2022-09-21T00:16:24.978Z,5.97
2022-09-21T00:18:52.219Z,5.63
2022-09-21T00:21:19.250Z,5.60
2022-09-21T00:23:46.378Z,4.13
2022-09-21T00:26:16.711Z,10.23
2022-09-21T00:28:44.659Z,7.57
2022-09-21T00:31:14.383Z,5.97
2022-09-21T00:33:43.585Z,5.40
2022-09-21T00:36:15.799Z,4.63
2022-09-21T00:38:43.046Z,6.17
2022-09-21T00:41:11.387Z,7.30
2022-09-21T00:43:43.423Z,4.10
2022-09-21T00:46:22.595Z,6.20
2022-09-21T00:48:49.576Z,7.10
2022-09-21T00:51:16.800Z,6.90
2022-09-21T00:53:43.982Z,6.13
2022-09-21T00:56:12.731Z,5.20
2022-09-21T00:58:45.280Z,6.30
2022-09-21T01:01:18.764Z,6.13
2022-09-21T01:03:50.369Z,5.03
2022-09-21T01:06:19.176Z,8.10
2022-09-21T01:08:52.674Z,9.10
2022-09-21T01:11:29.957Z,6.17
2022-09-21T01:14:10.155Z,11.67
2022-09-21T01:17:05.885Z,7.60
2022-09-21T01:19:53.648Z,7.43
2022-09-21T01:22:28.848Z,9.30
2022-09-21T01:25:24.311Z,8.27
2022-09-21T01:28:21.762Z,12.73
2022-09-21T01:30:51.687Z,8.70
2022-09-21T01:33:27.527Z,12.70
2022-09-21T01:36:03.288Z,7.70
2022-09-21T01:38:40.890Z,9.30
2022-09-21T01:41:11.898Z,7.30
2022-09-21T01:43:43.558Z,10.07
2022-09-21T01:46:16.934Z,9.07
2022-09-21T01:48:48.279Z,11.87
2022-09-21T01:51:17.971Z,8.10
2022-09-21T01:53:58.415Z,9.80
2022-09-21T01:56:36.605Z,11.50
2022-09-21T01:59:25.086Z,8.57
2022-09-21T02:02:08.796Z,10.37
2022-09-21T02:04:36.029Z,9.40
2022-09-21T02:07:03.017Z,15.30
2022-09-21T02:09:30.243Z,7.73
2022-09-21T02:11:58.590Z,16.60
2022-09-21T02:14:25.955Z,12.50
2022-09-21T02:17:27.155Z,10.33
2022-09-21T02:20:36.618Z,9.47
2022-09-21T02:23:18.734Z,10.00
2022-09-21T02:25:53.991Z,8.60
2022-09-21T02:28:32.763Z,21.03
2022-09-21T02:31:10.069Z,10.60
2022-09-21T02:33:56.188Z,20.97
2022-09-21T02:36:31.938Z,11.07
2022-09-21T02:39:15.947Z,11.53
2022-09-21T02:41:52.656Z,10.00
2022-09-21T02:44:25.065Z,10.83
2022-09-21T02:47:15.812Z,11.33
2022-09-21T02:49:48.075Z,8.60
2022-09-21T02:52:17.232Z,14.30
2022-09-21T02:54:49.030Z,12.80
2022-09-21T02:57:18.178Z,7.93
2022-09-21T02:59:45.292Z,10.07
2022-09-21T03:02:12.850Z,9.50
2022-09-21T03:04:42.114Z,9.53
2022-09-21T03:07:09.475Z,14.10
2022-09-21T03:09:36.420Z,9.50
2022-09-21T03:12:03.372Z,11.87
2022-09-21T03:14:31.413Z,13.20
2022-09-21T03:16:58.449Z,9.63
2022-09-21T03:19:25.521Z,8.37
2022-09-21T03:21:52.403Z,12.13
2022-09-21T03:24:39.164Z,10.70
2022-09-21T03:27:06.116Z,10.63
2022-09-21T03:29:33.138Z,14.87
2022-09-21T03:32:00.177Z,9.57
2022-09-21T03:34:27.155Z,17.87
2022-09-21T03:36:54.051Z,13.30
2022-09-21T03:39:20.819Z,13.60
2022-09-21T03:41:48.073Z,9.57
2022-09-21T03:44:17.755Z,10.23
2022-09-21T03:46:44.694Z,12.13
2022-09-21T03:49:11.483Z,9.73
2022-09-21T03:51:39.522Z,12.60
2022-09-21T03:54:06.439Z,12.17
2022-09-21T03:56:33.658Z,16.23
2022-09-21T03:59:00.775Z,11.40
2022-09-21T04:01:27.775Z,10.60
2022-09-21T04:03:54.884Z,9.83
2022-09-21T04:06:21.745Z,10.37
2022-09-21T04:08:48.505Z,11.23
2022-09-21T04:11:18.627Z,12.23
2022-09-21T04:13:51.044Z,12.40
2022-09-21T04:16:17.999Z,13.53
2022-09-21T04:18:44.828Z,10.43
2022-09-21T04:21:11.650Z,12.83
2022-09-21T04:23:38.516Z,15.50
2022-09-21T04:26:05.373Z,12.83
2022-09-21T04:28:32.845Z,13.87
2022-09-21T04:30:59.721Z,8.40
2022-09-21T04:33:26.479Z,9.07
2022-09-21T04:35:56.930Z,10.30
2022-09-21T04:38:23.748Z,18.23
2022-09-21T04:40:59.859Z,13.17
2022-09-21T04:43:26.796Z,15.23
2022-09-21T04:45:53.658Z,7.97
2022-09-21T04:48:20.520Z,8.10
2022-09-21T04:50:50.859Z,8.70
2022-09-21T04:53:18.020Z,6.80
2022-09-21T04:55:46.341Z,10.50
2022-09-21T04:58:13.163Z,11.73
2022-09-21T05:00:39.934Z,8.00
2022-09-21T05:03:06.743Z,6.33
2022-09-21T05:05:33.578Z,7.57
2022-09-21T05:08:00.423Z,10.10
2022-09-21T05:10:27.219Z,7.13
2022-09-21T05:12:54.654Z,9.93
2022-09-21T05:15:22.272Z,8.90
2022-09-21T05:17:49.033Z,5.67
2022-09-21T05:20:15.857Z,9.27
2022-09-21T05:22:42.643Z,8.43
2022-09-21T05:25:10.433Z,5.90
2022-09-21T05:27:37.386Z,8.23
2022-09-21T05:30:05.747Z,7.13
2022-09-21T05:32:45.245Z,7.20
2022-09-21T05:35:12.413Z,7.57
2022-09-21T05:38:14.997Z,7.87
2022-09-21T05:40:42.140Z,9.80
2022-09-21T05:43:10.267Z,9.60
2022-09-21T05:45:47.305Z,6.27
2022-09-21T05:48:25.886Z,12.80
2022-09-21T05:50:55.504Z,9.23
2022-09-21T05:54:09.800Z,7.30
2022-09-21T05:57:03.235Z,6.63
2022-09-21T05:59:56.846Z,5.60
2022-09-21T06:02:42.325Z,12.30
2022-09-21T06:05:13.538Z,8.20
2022-09-21T06:07:41.549Z,8.03
2022-09-21T06:10:10.557Z,6.83
2022-09-21T06:12:37.782Z,8.47
2022-09-21T06:15:06.526Z,10.13
2022-09-21T06:17:33.799Z,5.50
2022-09-21T06:20:00.698Z,7.90
2022-09-21T06:22:27.457Z,5.07
2022-09-21T06:24:54.287Z,11.43
2022-09-21T06:27:21.219Z,4.77
2022-09-21T06:29:48.032Z,9.53
2022-09-21T06:32:14.823Z,7.97
2022-09-21T06:34:42.909Z,5.43
2022-09-21T06:37:10.005Z,5.30
2022-09-21T06:39:36.855Z,5.00
2022-09-21T06:42:03.807Z,6.30
2022-09-21T06:44:31.038Z,9.53
2022-09-21T06:46:57.851Z,6.13
2022-09-21T06:49:24.608Z,5.20
2022-09-21T06:51:51.385Z,4.67
2022-09-21T06:54:18.445Z,4.00
2022-09-21T06:56:45.522Z,6.70
2022-09-21T06:59:12.576Z,3.20
2022-09-21T07:01:39.522Z,3.77
2022-09-21T07:04:09.372Z,3.27
2022-09-21T07:06:36.330Z,3.53
2022-09-21T07:11:50.248Z,2.80
2022-09-21T07:14:17.020Z,2.40
2022-09-21T07:16:43.943Z,10.50
2022-09-21T07:19:11.794Z,3.07
2022-09-21T07:21:39.038Z,4.10
2022-09-21T07:24:11.024Z,5.20
2022-09-21T07:26:38.691Z,4.77
2022-09-21T07:29:05.740Z,6.83
2022-09-21T07:31:32.736Z,2.80
2022-09-21T07:33:59.681Z,2.57
2022-09-21T07:36:26.742Z,4.70
2022-09-21T07:38:54.135Z,2.70
2022-09-21T07:41:21.309Z,2.97
2022-09-21T07:43:48.213Z,4.90
2022-09-21T07:46:15.756Z,2.87
2022-09-21T07:48:42.906Z,4.93
2022-09-21T07:51:15.115Z,3.90
2022-09-21T07:53:46.867Z,4.40
2022-09-21T07:56:15.983Z,2.63
2022-09-21T07:59:01.916Z,2.60
2022-09-21T08:01:30.147Z,3.77
2022-09-21T08:03:58.583Z,4.10
2022-09-21T08:06:29.311Z,3.47
2022-09-21T08:08:58.083Z,3.00
2022-09-21T08:11:27.571Z,4.27
2022-09-21T08:13:56.826Z,3.40
2022-09-21T08:16:24.217Z,5.17
2022-09-21T08:18:51.629Z,5.70
2022-09-21T08:21:18.902Z,3.83
2022-09-21T08:23:46.024Z,3.90
2022-09-21T08:26:20.670Z,3.00
2022-09-21T08:28:49.350Z,3.87
2022-09-21T08:31:19.688Z,2.77
2022-09-21T08:33:47.835Z,2.47
2022-09-21T08:36:14.638Z,1.97
2022-09-21T08:38:41.528Z,1.40
2022-09-21T08:41:20.705Z,1.43
2022-09-21T08:43:51.229Z,1.07
2022-09-21T08:46:24.728Z,2.67
2022-09-21T08:48:56.012Z,1.33
2022-09-21T08:51:26.896Z,3.60
2022-09-21T08:53:59.176Z,4.53
2022-09-21T08:56:41.897Z,4.73
2022-09-21T08:59:15.821Z,1.60
2022-09-21T09:02:00.830Z,0.90
2022-09-21T09:04:46.299Z,3.03
2022-09-21T09:07:27.286Z,1.73
2022-09-21T09:10:15.421Z,2.33
2022-09-21T09:12:53.300Z,4.10
2022-09-21T09:15:38.321Z,2.03
2022-09-21T09:18:44.502Z,1.87
2022-09-21T09:21:16.505Z,1.50
2022-09-21T09:23:51.635Z,2.33
2022-09-21T09:26:55.761Z,1.60
2022-09-21T09:29:49.242Z,12.70
2022-09-21T09:32:17.780Z,1.20
2022-09-21T09:34:57.483Z,5.33
2022-09-21T09:37:31.219Z,1.10
2022-09-21T09:40:00.802Z,7.40
2022-09-21T09:42:45.697Z,1.10
2022-09-21T09:45:24.434Z,2.40
2022-09-21T09:48:17.042Z,1.33
2022-09-21T09:50:44.223Z,1.17
2022-09-21T09:53:20.875Z,1.20
2022-09-21T09:55:51.599Z,1.70
2022-09-21T09:58:25.846Z,3.70
2022-09-21T10:00:57.651Z,2.30
2022-09-21T10:03:27.359Z,2.10
2022-09-21T10:05:54.659Z,1.33
2022-09-21T10:08:44.672Z,0.97
2022-09-21T10:11:13.888Z,2.40
2022-09-21T10:13:47.128Z,0.97
2022-09-21T10:16:15.690Z,5.17
2022-09-21T10:18:51.267Z,2.40
2022-09-21T10:21:24.003Z,1.27
2022-09-21T10:24:00.223Z,1.90
2022-09-21T10:26:36.837Z,4.60
2022-09-21T10:29:21.964Z,2.40
2022-09-21T10:32:00.226Z,1.20
2022-09-21T10:34:32.550Z,0.90
2022-09-21T10:37:03.098Z,1.33
2022-09-21T10:39:34.421Z,1.07
2022-09-21T10:42:14.009Z,0.90
2022-09-21T10:44:54.157Z,1.33
2022-09-21T10:47:23.795Z,1.00
2022-09-21T10:49:54.615Z,3.70
2022-09-21T10:52:45.984Z,2.60
2022-09-21T10:55:20.943Z,7.30
2022-09-21T10:57:49.157Z,1.80
2022-09-21T11:00:22.528Z,2.93
2022-09-21T11:02:50.779Z,0.90
2022-09-21T11:05:27.708Z,1.37
2022-09-21T11:08:02.626Z,2.40
2022-09-21T11:10:49.108Z,1.03
2022-09-21T11:13:39.684Z,2.50
2022-09-21T11:16:23.614Z,1.43
2022-09-21T11:19:02.426Z,9.20
2022-09-21T11:22:05.504Z,2.63
2022-09-21T11:24:37.969Z,1.13
2022-09-21T11:27:14.453Z,1.20
2022-09-21T11:29:55.438Z,3.43
2022-09-21T11:32:37.574Z,1.30
2022-09-21T11:35:26.988Z,5.60
2022-09-21T11:38:18.869Z,8.60
2022-09-21T11:41:07.229Z,1.43
2022-09-21T11:44:15.515Z,4.63
2022-09-21T11:47:02.885Z,4.20
2022-09-21T11:50:28.852Z,4.30
2022-09-21T11:53:05.721Z,1.97
2022-09-21T11:55:51.314Z,4.53
2022-09-21T11:58:38.973Z,4.27
2022-09-21T12:01:23.972Z,5.03
2022-09-21T12:04:03.650Z,1.30
2022-09-21T12:06:38.883Z,1.47
2022-09-21T12:09:27.547Z,1.20
2022-09-21T12:12:14.281Z,6.43
2022-09-21T12:14:57.155Z,3.60
2022-09-21T12:17:37.100Z,1.07
2022-09-21T12:20:14.258Z,2.37
2022-09-21T12:22:47.231Z,1.00
2022-09-21T12:25:28.346Z,1.33
2022-09-21T12:28:02.489Z,1.90
2022-09-21T12:30:32.033Z,2.20
2022-09-21T12:33:27.740Z,3.33
2022-09-21T12:36:01.978Z,0.80
2022-09-21T12:39:15.382Z,1.17
2022-09-21T12:41:56.484Z,0.60
2022-09-21T12:44:51.975Z,0.80
2022-09-21T12:47:46.644Z,0.77
2022-09-21T12:50:26.122Z,2.20
2022-09-21T12:52:55.065Z,0.70
2022-09-21T12:55:32.744Z,0.60
2022-09-21T12:58:26.281Z,1.90
2022-09-21T13:01:17.321Z,0.73
2022-09-21T13:04:02.136Z,12.03
2022-09-21T13:06:29.365Z,0.67
2022-09-21T13:08:57.404Z,0.80
2022-09-21T13:11:24.479Z,0.77
2022-09-21T13:13:59.418Z,0.70
2022-09-21T13:16:31.549Z,0.80
2022-09-21T13:19:19.530Z,0.50
2022-09-21T13:21:46.520Z,0.90
2022-09-21T13:24:27.358Z,1.33
2022-09-21T13:26:57.053Z,4.20
2022-09-21T13:29:25.084Z,0.80
2022-09-21T13:31:57.657Z,0.63
2022-09-21T13:34:36.228Z,0.90
2022-09-21T13:37:14.646Z,1.50
2022-09-21T13:40:03.547Z,4.43
2022-09-21T13:42:30.470Z,3.70
2022-09-21T13:44:59.195Z,0.97
2022-09-21T13:47:31.726Z,3.10
2022-09-21T13:50:01.246Z,0.90
2022-09-21T13:52:36.503Z,1.30
2022-09-21T13:55:06.347Z,0.70
2022-09-21T13:57:46.981Z,2.00
2022-09-21T14:00:13.852Z,0.90
2022-09-21T14:02:56.698Z,0.70
2022-09-21T14:05:35.633Z,0.60
2022-09-21T14:08:05.300Z,0.60
2022-09-21T14:10:36.308Z,0.80
2022-09-21T14:13:17.668Z,2.97
2022-09-21T14:15:44.465Z,0.90
2022-09-21T14:18:17.120Z,3.03
2022-09-21T14:21:17.174Z,1.07
2022-09-21T14:24:19.931Z,0.97
2022-09-21T14:26:55.772Z,1.20
2022-09-21T14:29:45.983Z,1.00
2022-09-21T14:32:20.676Z,2.63
2022-09-21T14:34:50.631Z,4.03
2022-09-21T14:37:34.540Z,1.20
2022-09-21T14:40:15.500Z,4.00
2022-09-21T14:42:43.586Z,1.33
2022-09-21T14:45:18.417Z,1.33
2022-09-21T14:48:16.372Z,2.40
2022-09-21T14:50:57.191Z,0.80
2022-09-21T14:53:35.530Z,6.83
2022-09-21T14:56:11.909Z,2.53
2022-09-21T14:59:03.837Z,6.83
2022-09-21T15:01:36.373Z,0.73
2022-09-21T15:04:22.790Z,0.80
2022-09-21T15:07:35.725Z,1.30
2022-09-21T15:10:30.337Z,1.23
2022-09-21T15:13:21.822Z,2.03
2022-09-21T15:16:17.902Z,1.17
2022-09-21T15:18:51.378Z,1.00
2022-09-21T15:21:29.365Z,1.00
2022-09-21T15:23:56.976Z,1.03
2022-09-21T15:26:29.310Z,1.00
2022-09-21T15:29:15.465Z,1.27
2022-09-21T15:31:42.643Z,2.37
2022-09-21T15:34:13.416Z,0.83
2022-09-21T15:36:42.777Z,0.67
2022-09-21T15:39:29.160Z,1.03
2022-09-21T15:42:22.763Z,0.90
2022-09-21T15:44:54.019Z,3.37
2022-09-21T15:47:26.094Z,0.97
2022-09-21T15:49:53.136Z,0.80
2022-09-21T15:52:22.795Z,0.80
2022-09-21T15:54:56.499Z,0.90
2022-09-21T15:57:26.032Z,1.10
2022-09-21T15:59:53.987Z,1.07
2022-09-21T16:02:25.466Z,1.10
2022-09-21T16:04:53.335Z,3.03
2022-09-21T16:07:37.015Z,0.77
2022-09-21T16:10:29.598Z,1.30
2022-09-21T16:13:44.458Z,1.23
2022-09-21T16:16:14.943Z,4.20
2022-09-21T16:18:48.849Z,0.70
2022-09-21T16:21:22.030Z,2.10
2022-09-21T16:23:51.994Z,0.83
2022-09-21T16:26:32.307Z,1.00
2022-09-21T16:29:18.759Z,1.23
2022-09-21T16:31:50.049Z,3.13
2022-09-21T16:34:21.639Z,3.27
2022-09-21T16:36:51.387Z,0.70
2022-09-21T16:39:19.379Z,2.40
2022-09-21T16:41:49.695Z,1.10
2022-09-21T16:44:22.884Z,1.27
2022-09-21T16:47:25.276Z,0.80
2022-09-21T16:50:00.300Z,4.67
2022-09-21T16:52:29.542Z,0.80
2022-09-21T16:54:57.067Z,2.00
2022-09-21T16:57:25.087Z,0.80
2022-09-21T16:59:52.868Z,3.30
2022-09-21T17:02:19.799Z,3.67
2022-09-21T17:05:03.616Z,2.33
2022-09-21T17:07:30.392Z,1.00
2022-09-21T17:09:57.196Z,1.00
2022-09-21T17:12:24.014Z,3.00
2022-09-21T17:14:52.330Z,0.80
2022-09-21T17:17:23.494Z,0.60
2022-09-21T17:19:52.300Z,1.03
2022-09-21T17:22:19.875Z,0.83
2022-09-21T17:24:51.202Z,1.47
2022-09-21T17:27:21.618Z,0.73
2022-09-21T17:29:49.797Z,1.17
2022-09-21T17:32:21.820Z,2.80
2022-09-21T17:35:18.628Z,1.80
2022-09-21T17:37:45.995Z,1.63
2022-09-21T17:40:13.795Z,2.30
2022-09-21T17:42:43.296Z,0.93
2022-09-21T17:45:15.965Z,3.77
2022-09-21T17:47:43.037Z,0.80
2022-09-21T17:50:12.803Z,2.73
2022-09-21T17:53:00.016Z,2.30
2022-09-21T17:55:27.094Z,1.00
2022-09-21T17:58:34.510Z,1.07
2022-09-21T18:01:04.265Z,1.23
2022-09-21T18:03:35.995Z,2.40
2022-09-21T18:06:03.766Z,1.70
2022-09-21T18:08:36.250Z,2.97
2022-09-21T18:11:03.386Z,1.03
2022-09-21T18:14:05.622Z,1.23
2022-09-21T18:17:04.490Z,2.50
2022-09-21T18:19:58.505Z,2.10
2022-09-21T18:22:51.445Z,2.03
2022-09-21T18:25:34.518Z,1.00
2022-09-21T18:28:15.693Z,2.77
2022-09-21T18:30:50.670Z,1.63
2022-09-21T18:33:46.802Z,1.43
2022-09-21T18:36:31.731Z,6.97
2022-09-21T18:39:07.581Z,3.07
2022-09-21T18:42:06.387Z,1.30
2022-09-21T18:44:38.786Z,1.63
2022-09-21T18:47:19.910Z,2.10
2022-09-21T18:49:59.042Z,1.70
2022-09-21T18:52:46.894Z,1.60
2022-09-21T18:55:33.089Z,3.03
2022-09-21T18:58:00.986Z,7.13
2022-09-21T19:00:32.794Z,3.63
2022-09-21T19:03:17.199Z,1.97
2022-09-21T19:06:00.185Z,1.90
2022-09-21T19:08:52.566Z,2.40
2022-09-21T19:11:32.221Z,2.07
2022-09-21T19:14:09.626Z,6.37
2022-09-21T19:16:54.194Z,2.70
2022-09-21T19:19:30.067Z,4.77
2022-09-21T19:22:18.819Z,4.30
2022-09-21T19:25:25.010Z,2.57
2022-09-21T19:27:59.534Z,2.40
2022-09-21T19:30:26.983Z,3.57
2022-09-21T19:33:02.664Z,2.70
2022-09-21T19:35:32.136Z,2.60
2022-09-21T19:38:01.546Z,2.53
2022-09-21T19:40:39.484Z,3.23
2022-09-21T19:43:21.447Z,4.13
2022-09-21T19:46:23.637Z,13.33
2022-09-21T19:48:54.138Z,6.40
2022-09-21T19:51:46.079Z,6.40
2022-09-21T19:54:40.317Z,13.83
2022-09-21T19:57:46.183Z,6.00
2022-09-21T20:00:19.021Z,6.50
2022-09-21T20:02:55.709Z,3.40
2022-09-21T20:05:31.377Z,8.13
2022-09-21T20:08:10.626Z,6.40
2022-09-21T20:11:05.723Z,5.40
2022-09-21T20:13:53.869Z,5.17
2022-09-21T20:16:26.175Z,10.37
2022-09-21T20:19:22.577Z,6.60
2022-09-21T20:21:55.318Z,2.70
2022-09-21T20:24:27.841Z,3.23
2022-09-21T20:26:54.732Z,5.30
2022-09-21T20:29:22.066Z,7.07
2022-09-21T20:31:52.365Z,4.00
2022-09-21T20:34:20.157Z,7.17
2022-09-21T20:36:46.998Z,3.90
2022-09-21T20:39:13.850Z,3.40
2022-09-21T20:41:41.149Z,2.63
2022-09-21T20:44:12.235Z,2.57
2022-09-21T20:46:39.247Z,2.93
2022-09-21T20:49:08.213Z,4.70
2022-09-21T20:51:36.045Z,4.37
2022-09-21T20:54:04.041Z,5.27
2022-09-21T20:56:31.452Z,7.63
2022-09-21T20:58:59.232Z,3.80
2022-09-21T21:01:26.986Z,5.53
2022-09-21T21:04:01.721Z,5.67
2022-09-21T21:06:31.284Z,4.60
2022-09-21T21:08:58.587Z,4.53
2022-09-21T21:11:27.988Z,8.73
2022-09-21T21:13:56.160Z,6.80
2022-09-21T21:16:23.572Z,3.20
2022-09-21T21:18:51.218Z,4.43
2022-09-21T21:21:18.014Z,3.07
2022-09-21T21:24:08.110Z,5.30
2022-09-21T21:26:57.805Z,3.33
2022-09-21T21:29:23.147Z,6.00
2022-09-21T21:31:51.268Z,3.60
2022-09-21T21:34:18.247Z,4.83
2022-09-21T21:36:45.541Z,7.40
2022-09-21T21:39:12.326Z,4.40
2022-09-21T21:41:39.171Z,3.37
2022-09-21T21:44:05.989Z,3.70
2022-09-21T21:46:32.983Z,2.60
2022-09-21T21:49:00.489Z,5.80
2022-09-21T21:51:27.312Z,3.03
2022-09-21T21:53:54.135Z,4.80
2022-09-21T21:56:23.125Z,2.60
2022-09-21T21:58:54.346Z,9.03
2022-09-21T22:01:24.573Z,5.03
2022-09-21T22:03:56.783Z,3.13
2022-09-21T22:06:24.231Z,7.33
2022-09-21T22:08:52.234Z,4.33
2022-09-21T22:11:19.980Z,6.40
2022-09-21T22:13:46.864Z,3.23
2022-09-21T22:16:19.814Z,3.70
2022-09-21T22:18:46.753Z,5.97
2022-09-21T22:21:22.513Z,4.80
2022-09-21T22:23:59.290Z,3.73
2022-09-21T22:26:27.874Z,7.20
2022-09-21T22:28:57.985Z,6.47
2022-09-21T22:31:28.250Z,5.57
2022-09-21T22:33:56.130Z,6.47
2022-09-21T22:36:25.020Z,6.80
2022-09-21T22:38:54.292Z,8.90
2022-09-21T22:41:34.951Z,5.57
2022-09-21T22:44:01.987Z,4.83
2022-09-21T22:46:30.225Z,4.07
2022-09-21T22:48:57.336Z,4.00
2022-09-21T22:51:24.538Z,4.97
2022-09-21T22:53:51.667Z,6.73
2022-09-21T22:56:28.541Z,9.40
2022-09-21T22:58:58.645Z,5.90
2022-09-21T23:01:37.550Z,4.63
2022-09-21T23:04:07.974Z,6.03
2022-09-21T23:06:36.946Z,6.50
2022-09-21T23:09:06.911Z,6.03
2022-09-21T23:11:36.744Z,5.70
2022-09-21T23:14:04.305Z,5.13
2022-09-21T23:16:31.217Z,6.37
2022-09-21T23:18:58.645Z,5.90
2022-09-21T23:21:29.248Z,3.47
2022-09-21T23:24:00.033Z,5.73
2022-09-21T23:26:28.391Z,4.50
2022-09-21T23:28:58.527Z,6.20
2022-09-21T23:31:26.807Z,3.67
2022-09-21T23:33:55.963Z,5.83
2022-09-21T23:36:29.046Z,4.67
2022-09-21T23:38:56.453Z,6.30
2022-09-21T23:41:29.034Z,4.90
2022-09-21T23:43:57.163Z,4.50
2022-09-21T23:46:32.822Z,4.90
2022-09-21T23:49:00.564Z,4.07
2022-09-21T23:51:28.100Z,7.50
2022-09-21T23:53:54.954Z,3.23
2022-09-21T23:56:23.380Z,4.90
2022-09-21T23:58:51.384Z,4.30
